Time;durP1;ratioP1;P1;durP2;ratioP2;P2;SDS_P1;SDS_P2;PMS_P1;PMS_P2;Temp;Humidity;BMP_temperature;BMP_pressure;BME280_temperature;BME280_humidity;BME280_pressure;Samples;Min_cycle;Max_cycle;Signal;HPM_P1;HPM_P2
2021/12/16 00:08:59;;;;;;;35.50;12.68;;;8.30;92.90;;;;;;5048012;28;20067;-83
2021/12/16 00:33:31;;;;;;;50.63;17.50;;;8.30;92.90;;;;;;5073062;28;20147;-83
2021/12/16 00:35:57;;;;;;;51.00;17.27;;;8.20;92.90;;;;;;5049994;28;20416;-83
2021/12/16 00:38:24;;;;;;;48.13;16.48;;;8.30;92.90;;;;;;5053548;28;20057;-83
2021/12/16 00:40:49;;;;;;;46.83;17.23;;;8.20;92.90;;;;;;5060188;28;20412;-83
2021/12/16 00:46:09;;;;;;;46.88;18.92;;;8.20;92.90;;;;;;5066599;28;20062;-83
2021/12/16 00:54:13;;;;;;;61.13;19.85;;;8.20;92.90;;;;;;5071463;28;20087;-82
2021/12/16 00:56:56;;;;;;;66.82;22.67;;;8.20;92.90;;;;;;5050020;28;20107;-83
2021/12/16 00:59:24;;;;;;;62.20;20.17;;;8.20;92.90;;;;;;5055105;28;20066;-81
2021/12/16 01:10:01;;;;;;;68.93;22.50;;;8.20;93.00;;;;;;5067693;28;20060;-82
2021/12/16 01:36:59;;;;;;;65.72;22.17;;;8.10;93.10;;;;;;5071219;28;20055;-82
2021/12/16 01:48:50;;;;;;;76.38;25.15;;;8.10;93.20;;;;;;5047611;28;20181;-82
2021/12/16 01:50:38;;;;;;;76.15;25.63;;;8.10;93.20;;;;;;5057986;28;20053;-82
2021/12/16 01:53:37;;;;;;;81.68;25.17;;;8.10;93.30;;;;;;5067290;28;20050;-81
2021/12/16 01:56:21;;;;;;;80.93;25.25;;;8.10;93.30;;;;;;5067460;28;20053;-82
2021/12/16 01:58:49;;;;;;;69.70;23.63;;;8.20;93.40;;;;;;5045853;28;20066;-82
2021/12/16 02:01:19;;;;;;;73.75;24.70;;;8.20;93.30;;;;;;5034719;28;20549;-82
2021/12/16 02:03:55;;;;;;;70.30;26.20;;;8.20;93.40;;;;;;5035221;28;20058;-82
2021/12/16 02:09:06;;;;;;;85.75;25.52;;;8.30;93.40;;;;;;5066513;28;20068;-83
2021/12/16 02:28:11;;;;;;;73.95;25.50;;;8.40;93.40;;;;;;5042424;28;20109;-82
2021/12/16 02:33:51;;;;;;;77.72;25.60;;;8.40;93.40;;;;;;5071510;28;20057;-82
2021/12/16 02:36:01;;;;;;;78.10;25.25;;;8.40;93.40;;;;;;5069773;28;20068;-82
2021/12/16 02:38:31;;;;;;;81.03;26.20;;;8.50;93.50;;;;;;5038330;28;20083;-82
2021/12/16 02:40:58;;;;;;;69.55;23.88;;;8.50;93.50;;;;;;5033860;28;20061;-82
2021/12/16 02:48:39;;;;;;;71.60;25.67;;;8.50;93.50;;;;;;5049651;28;20090;-82
2021/12/16 02:51:09;;;;;;;72.15;25.63;;;8.60;93.60;;;;;;5043377;28;20062;-82
2021/12/16 02:53:46;;;;;;;75.53;24.40;;;8.50;93.50;;;;;;5052085;28;20407;-82
2021/12/16 02:56:13;;;;;;;80.80;26.33;;;8.60;93.50;;;;;;5050114;28;20156;-82
2021/12/16 02:58:41;;;;;;;80.40;25.90;;;8.60;93.50;;;;;;5050381;28;20070;-82
2021/12/16 03:01:16;;;;;;;89.70;26.08;;;8.60;93.50;;;;;;5063836;28;20082;-81
2021/12/16 03:03:43;;;;;;;81.93;26.42;;;8.60;93.60;;;;;;5044189;28;20155;-81
2021/12/16 03:06:10;;;;;;;91.93;27.42;;;8.70;93.60;;;;;;5032208;28;20052;-82
2021/12/16 03:08:37;;;;;;;81.97;26.08;;;8.70;93.60;;;;;;5052606;28;20057;-82
2021/12/16 03:11:16;;;;;;;87.07;26.38;;;8.70;93.60;;;;;;5054842;28;20049;-82
2021/12/16 03:13:57;;;;;;;86.00;25.83;;;8.70;94.00;;;;;;5048283;28;20060;-82
2021/12/16 03:21:51;;;;;;;104.07;29.25;;;8.70;93.60;;;;;;5054496;28;20148;-82
2021/12/16 03:37:24;;;;;;;84.60;26.45;;;8.80;93.70;;;;;;5061793;28;20140;-82
2021/12/16 03:40:05;;;;;;;79.88;26.23;;;8.80;93.70;;;;;;5044180;28;20056;-82
2021/12/16 03:42:33;;;;;;;73.78;25.40;;;8.80;93.70;;;;;;5034826;28;20050;-82
2021/12/16 03:45:06;;;;;;;84.90;24.48;;;8.80;93.70;;;;;;5052017;28;20385;-82
2021/12/16 03:47:43;;;;;;;83.40;25.52;;;8.80;93.70;;;;;;5050191;28;20158;-82
2021/12/16 03:50:17;;;;;;;83.13;26.50;;;8.70;93.70;;;;;;5053100;28;20040;-82
2021/12/16 03:52:44;;;;;;;94.88;26.50;;;8.70;93.70;;;;;;5047750;28;20054;-81
2021/12/16 03:55:11;;;;;;;86.63;27.65;;;8.70;93.70;;;;;;5032224;28;20193;-81
2021/12/16 03:57:37;;;;;;;90.18;26.92;;;8.80;93.70;;;;;;5069061;28;20144;-82
2021/12/16 04:00:15;;;;;;;96.45;26.67;;;8.70;93.70;;;;;;5055176;28;20052;-82
2021/12/16 04:02:41;;;;;;;94.82;27.55;;;8.80;93.80;;;;;;5042911;28;20518;-82
2021/12/16 04:05:10;;;;;;;92.15;29.52;;;8.80;93.70;;;;;;5051496;28;20040;-82
2021/12/16 04:07:37;;;;;;;92.75;28.05;;;8.70;93.70;;;;;;5068863;28;20451;-82
2021/12/16 04:10:09;;;;;;;94.15;29.00;;;8.80;93.70;;;;;;5057133;28;20052;-82
2021/12/16 04:12:35;;;;;;;95.90;26.58;;;8.70;93.70;;;;;;5043117;28;20069;-82
2021/12/16 04:15:05;;;;;;;90.30;27.83;;;8.70;93.70;;;;;;5054880;28;20044;-82
2021/12/16 04:17:32;;;;;;;89.40;27.73;;;8.70;93.70;;;;;;5071376;28;20090;-81
2021/12/16 04:20:00;;;;;;;93.35;28.58;;;8.70;93.70;;;;;;5059186;28;20395;-82
2021/12/16 04:22:36;;;;;;;90.57;26.13;;;8.70;93.70;;;;;;5040608;28;20519;-81
2021/12/16 04:25:06;;;;;;;91.78;25.52;;;8.60;93.70;;;;;;5055110;28;20063;-81
2021/12/16 04:27:33;;;;;;;86.97;26.02;;;8.60;93.60;;;;;;5049334;28;20047;-82
2021/12/16 04:29:59;;;;;;;87.47;25.15;;;8.50;93.60;;;;;;5030090;28;20058;-82
2021/12/16 04:32:25;;;;;;;83.03;25.55;;;8.50;93.60;;;;;;5054187;28;20049;-82
2021/12/16 04:34:51;;;;;;;80.35;24.83;;;8.40;93.60;;;;;;5054355;28;20471;-81
2021/12/16 04:37:17;;;;;;;81.18;24.33;;;8.40;93.60;;;;;;5054744;28;20106;-82
2021/12/16 04:39:45;;;;;;;97.13;27.08;;;8.30;93.60;;;;;;5050373;28;20152;-82
2021/12/16 04:42:13;;;;;;;100.20;27.42;;;8.30;93.60;;;;;;5044860;28;20505;-81
2021/12/16 04:44:40;;;;;;;89.38;27.58;;;8.30;93.70;;;;;;5050656;28;20089;-82
2021/12/16 04:47:07;;;;;;;96.45;26.77;;;8.30;93.70;;;;;;5049765;28;20069;-82
2021/12/16 04:49:34;;;;;;;96.47;26.65;;;8.30;93.70;;;;;;5051756;28;20573;-82
2021/12/16 04:52:04;;;;;;;93.35;27.98;;;8.30;93.70;;;;;;5025514;28;20061;-82
2021/12/16 04:54:30;;;;;;;78.88;24.88;;;8.30;93.80;;;;;;5079070;28;20085;-82
2021/12/16 04:56:57;;;;;;;85.22;27.35;;;8.30;93.70;;;;;;5042995;28;20080;-81
2021/12/16 04:59:24;;;;;;;88.45;25.98;;;8.40;93.80;;;;;;5052855;28;20073;-82
2021/12/16 05:01:54;;;;;;;83.50;25.45;;;8.30;93.80;;;;;;5057147;28;20077;-82
2021/12/16 05:04:20;;;;;;;91.25;26.10;;;8.30;93.80;;;;;;5036333;28;20042;-82
2021/12/16 05:06:46;;;;;;;85.00;27.38;;;8.30;93.80;;;;;;5037909;28;20056;-80
2021/12/16 05:09:31;;;;;;;87.22;28.05;;;8.40;94.20;;;;;;5048866;28;20133;-79
2021/12/16 05:11:56;;;;;;;78.00;26.98;;;8.40;93.80;;;;;;5052765;28;20059;-78
2021/12/16 05:14:22;;;;;;;81.43;25.10;;;8.40;93.80;;;;;;5051588;28;20050;-80
2021/12/16 05:16:48;;;;;;;81.22;25.38;;;8.40;93.80;;;;;;5034979;28;20570;-81
2021/12/16 05:19:13;;;;;;;84.75;26.95;;;8.50;93.90;;;;;;5014692;28;20076;-81
2021/12/16 05:21:55;;;;;;;74.90;26.27;;;8.50;93.80;;;;;;5050106;28;20046;-79
2021/12/16 05:24:27;;;;;;;89.82;27.67;;;8.50;93.80;;;;;;5053696;28;20043;-79
2021/12/16 05:27:03;;;;;;;94.32;28.63;;;8.50;93.80;;;;;;5052872;28;20510;-81
2021/12/16 05:29:28;;;;;;;93.80;29.38;;;8.40;93.80;;;;;;5045488;28;20163;-75
2021/12/16 05:31:55;;;;;;;107.65;29.60;;;8.40;93.70;;;;;;5049557;28;20145;-81
2021/12/16 05:34:21;;;;;;;98.75;29.00;;;8.40;93.80;;;;;;5033570;28;20076;-80
2021/12/16 05:36:48;;;;;;;107.57;29.15;;;8.40;93.80;;;;;;5031358;28;20065;-78
2021/12/16 05:39:15;;;;;;;107.63;29.73;;;8.30;93.80;;;;;;5053355;28;20434;-80
2021/12/16 05:41:42;;;;;;;103.85;28.67;;;8.30;93.80;;;;;;5051156;28;20570;-81
2021/12/16 05:44:08;;;;;;;114.63;30.30;;;8.30;93.80;;;;;;5049779;28;20100;-83
2021/12/16 05:46:35;;;;;;;102.72;29.13;;;8.30;93.80;;;;;;5047334;28;20045;-84
2021/12/16 05:49:05;;;;;;;98.35;32.20;;;8.20;93.80;;;;;;5045588;28;20120;-85
2021/12/16 05:51:36;;;;;;;107.18;30.48;;;8.20;93.80;;;;;;5069690;28;20075;-85
2021/12/16 05:54:04;;;;;;;110.75;30.98;;;8.20;93.80;;;;;;5055709;28;20060;-81
2021/12/16 05:56:29;;;;;;;111.80;32.05;;;8.20;93.90;;;;;;5037304;28;20070;-83
2021/12/16 05:58:55;;;;;;;102.85;29.50;;;8.20;93.80;;;;;;5032231;28;20566;-84
2021/12/16 06:01:27;;;;;;;107.80;28.92;;;8.20;93.90;;;;;;5053887;28;20100;-82
2021/12/16 06:03:53;;;;;;;94.57;28.00;;;8.20;93.90;;;;;;5048314;28;20439;-82
2021/12/16 06:06:20;;;;;;;94.05;29.35;;;8.20;93.90;;;;;;5033466;28;20069;-82
2021/12/16 06:08:47;;;;;;;106.35;31.23;;;8.20;93.90;;;;;;5043323;28;20144;-82
2021/12/16 06:11:26;;;;;;;98.65;29.10;;;8.20;93.90;;;;;;5050243;28;20058;-82
2021/12/16 06:23:03;;;;;;;87.00;29.05;;;8.20;93.90;;;;;;5057635;28;20535;-82
2021/12/16 06:28:08;;;;;;;99.50;29.52;;;8.20;93.90;;;;;;5071974;28;20131;-84
2021/12/16 06:30:40;;;;;;;86.03;27.90;;;8.20;93.90;;;;;;5074261;28;20102;-83
2021/12/16 06:33:09;;;;;;;85.75;27.88;;;8.20;93.90;;;;;;5048229;28;20054;-82
2021/12/16 06:35:35;;;;;;;99.55;26.95;;;8.30;93.90;;;;;;5051625;28;20053;-83
2021/12/16 06:38:01;;;;;;;90.03;27.40;;;8.30;93.90;;;;;;5051906;28;20094;-83
2021/12/16 06:40:27;;;;;;;84.88;27.08;;;8.30;93.90;;;;;;5031711;28;20061;-82
2021/12/16 06:42:55;;;;;;;87.40;27.27;;;8.30;93.90;;;;;;5050507;28;20057;-83
2021/12/16 06:45:27;;;;;;;90.30;27.65;;;8.30;93.90;;;;;;5052142;28;20415;-83
2021/12/16 06:47:59;;;;;;;84.90;26.92;;;8.30;93.90;;;;;;5052529;28;20059;-81
2021/12/16 06:50:39;;;;;;;;;;;8.30;93.90;;;;;;5046703;28;20056;-83
2021/12/16 06:53:08;;;;;;;82.15;27.33;;;8.30;93.90;;;;;;5059596;28;19991;-83
2021/12/16 06:58:44;;;;;;;80.05;24.88;;;8.30;93.80;;;;;;5053847;28;20542;-82
2021/12/16 07:01:11;;;;;;;87.85;24.67;;;8.20;93.80;;;;;;5070325;28;20087;-83
2021/12/16 07:03:49;;;;;;;71.33;23.13;;;8.20;93.70;;;;;;5046999;28;20057;-83
2021/12/16 07:06:22;;;;;;;64.00;23.42;;;8.10;93.70;;;;;;5013749;28;20057;-82
2021/12/16 07:08:52;;;;;;;75.45;25.60;;;8.10;93.70;;;;;;5047673;28;20420;-84
2021/12/16 07:11:18;;;;;;;79.15;25.75;;;8.10;93.70;;;;;;5051831;28;20184;-83
2021/12/16 07:13:55;;;;;;;79.30;26.25;;;8.00;93.70;;;;;;5032544;28;20058;-83
2021/12/16 07:16:22;;;;;;;86.25;26.95;;;8.00;93.70;;;;;;5051929;28;20062;-82
2021/12/16 07:18:48;;;;;;;100.00;27.20;;;8.00;93.70;;;;;;5038434;28;20094;-83
2021/12/16 07:21:13;;;;;;;97.65;26.98;;;7.90;93.70;;;;;;5050940;28;20493;-83
2021/12/16 07:23:39;;;;;;;86.50;28.88;;;7.90;93.70;;;;;;5052418;28;20058;-83
2021/12/16 07:26:05;;;;;;;96.03;30.05;;;7.90;93.70;;;;;;5036918;28;20127;-83
2021/12/16 07:28:31;;;;;;;114.05;31.80;;;7.90;93.80;;;;;;5051800;28;20499;-83
2021/12/16 07:30:59;;;;;;;112.18;30.98;;;7.90;93.80;;;;;;5038222;28;20055;-83
2021/12/16 07:33:25;;;;;;;104.55;29.65;;;7.90;93.80;;;;;;5057152;28;20058;-83
2021/12/16 07:35:52;;;;;;;106.65;30.70;;;7.90;93.80;;;;;;5039694;28;20046;-83
2021/12/16 07:38:18;;;;;;;168.65;33.00;;;7.90;94.20;;;;;;5050545;28;20111;-82
2021/12/16 07:40:47;;;;;;;135.68;31.90;;;7.90;93.80;;;;;;5041577;28;20108;-83
2021/12/16 07:43:24;;;;;;;318.08;37.58;;;7.90;93.90;;;;;;5064083;28;20414;-82
2021/12/16 07:45:52;;;;;;;189.40;33.45;;;7.90;93.90;;;;;;5054004;28;20139;-83
2021/12/16 07:48:19;;;;;;;153.35;34.75;;;7.90;93.90;;;;;;5061714;28;20119;-83
2021/12/16 07:50:48;;;;;;;206.82;32.85;;;7.90;93.90;;;;;;5037113;28;20057;-83
2021/12/16 07:53:14;;;;;;;147.50;30.95;;;7.90;93.90;;;;;;5069696;28;20048;-83
2021/12/16 07:55:42;;;;;;;151.32;30.10;;;7.90;93.90;;;;;;5033508;28;20512;-83
2021/12/16 07:58:08;;;;;;;195.10;28.98;;;7.90;94.10;;;;;;5039003;28;20072;-83
2021/12/16 08:00:35;;;;;;;131.20;28.50;;;7.90;93.90;;;;;;5032808;28;20080;-83
2021/12/16 08:03:04;;;;;;;91.43;26.08;;;7.90;93.90;;;;;;5053158;28;20056;-82
2021/12/16 08:05:35;;;;;;;137.90;29.55;;;7.90;93.90;;;;;;5054599;28;20045;-83
2021/12/16 08:08:01;;;;;;;106.40;28.52;;;7.90;93.90;;;;;;5038822;28;20050;-83
2021/12/16 08:10:27;;;;;;;114.45;26.15;;;7.90;93.90;;;;;;5037246;28;20053;-83
2021/12/16 08:12:53;;;;;;;99.55;27.10;;;7.90;93.90;;;;;;5059971;28;20042;-83
2021/12/16 08:15:20;;;;;;;94.53;25.42;;;7.90;93.90;;;;;;5037299;28;20153;-82
2021/12/16 08:17:46;;;;;;;95.28;25.88;;;7.90;93.90;;;;;;5039568;28;20062;-83
2021/12/16 08:20:16;;;;;;;85.20;26.95;;;7.90;93.90;;;;;;5056560;28;20058;-83
2021/12/16 08:22:47;;;;;;;146.18;28.15;;;7.90;93.90;;;;;;5029666;28;20408;-82
2021/12/16 08:25:15;;;;;;;96.90;26.00;;;8.00;94.00;;;;;;5050979;28;20134;-82
2021/12/16 08:27:41;;;;;;;84.32;24.42;;;8.00;93.90;;;;;;5020632;28;20050;-81
2021/12/16 08:30:10;;;;;;;120.55;26.08;;;8.00;93.90;;;;;;5057485;28;20061;-82
2021/12/16 08:32:35;;;;;;;132.57;26.00;;;8.00;93.90;;;;;;5052368;28;20049;-82
2021/12/16 08:35:02;;;;;;;132.07;26.10;;;8.00;93.90;;;;;;5039395;28;20053;-83
2021/12/16 08:37:28;;;;;;;118.68;24.25;;;8.00;93.90;;;;;;5047401;28;20084;-82
2021/12/16 08:39:54;;;;;;;94.18;22.25;;;8.00;93.90;;;;;;5039605;28;20529;-83
2021/12/16 08:42:20;;;;;;;105.40;22.73;;;8.00;93.80;;;;;;5038368;28;20414;-82
2021/12/16 08:44:46;;;;;;;90.18;21.40;;;8.00;93.80;;;;;;5034195;28;20075;-82
2021/12/16 08:47:16;;;;;;;113.32;23.40;;;8.00;93.80;;;;;;5049280;28;20326;-83
2021/12/16 08:49:42;;;;;;;102.50;21.58;;;8.00;93.80;;;;;;5046308;28;20091;-83
2021/12/16 08:52:11;;;;;;;113.00;21.73;;;8.00;93.80;;;;;;5055203;28;20051;-82
2021/12/16 08:54:37;;;;;;;70.22;20.40;;;8.10;93.80;;;;;;5054119;28;20049;-83
2021/12/16 08:57:04;;;;;;;78.43;22.23;;;8.10;93.80;;;;;;5046490;28;20137;-83
2021/12/16 08:59:30;;;;;;;107.63;21.20;;;8.10;93.80;;;;;;5052535;28;20484;-82
2021/12/16 09:01:58;;;;;;;63.40;19.55;;;8.10;94.10;;;;;;5043059;28;20431;-82
2021/12/16 09:04:25;;;;;;;99.30;19.85;;;8.10;93.70;;;;;;5045615;28;20049;-83
2021/12/16 09:06:53;;;;;;;73.80;20.70;;;8.10;93.70;;;;;;5043309;28;20049;-83
2021/12/16 09:09:19;;;;;;;117.82;21.38;;;8.10;93.70;;;;;;5042211;28;20057;-83
2021/12/16 09:14:27;;;;;;;93.07;20.55;;;8.20;93.80;;;;;;5071744;28;20414;-83
2021/12/16 09:16:53;;;;;;;85.80;20.17;;;8.20;93.70;;;;;;5046420;28;20054;-83
2021/12/16 09:19:19;;;;;;;97.55;20.20;;;8.20;93.70;;;;;;5051934;28;20085;-83
2021/12/16 09:21:45;;;;;;;69.85;19.33;;;8.20;93.70;;;;;;5053506;28;20491;-82
2021/12/16 09:24:14;;;;;;;79.13;19.98;;;8.30;93.70;;;;;;5046909;28;20089;-82
2021/12/16 09:26:44;;;;;;;95.60;20.30;;;8.30;93.70;;;;;;5030164;28;20038;-82
2021/12/16 09:29:11;;;;;;;98.13;20.30;;;8.40;93.70;;;;;;5044656;28;20055;-83
2021/12/16 09:31:37;;;;;;;53.63;19.50;;;8.40;93.70;;;;;;5048012;28;20051;-83
2021/12/16 09:34:07;;;;;;;64.13;20.77;;;8.40;93.60;;;;;;5033094;28;20528;-82
2021/12/16 09:36:37;;;;;;;69.82;20.52;;;8.40;94.00;;;;;;5030702;28;20470;-83
2021/12/16 09:39:07;;;;;;;75.60;20.33;;;8.40;93.60;;;;;;5045261;28;20069;-82
2021/12/16 09:41:33;;;;;;;62.85;20.92;;;8.50;93.60;;;;;;5047095;28;20080;-82
2021/12/16 09:44:00;;;;;;;70.15;21.67;;;8.50;93.60;;;;;;5048594;28;20072;-82
2021/12/16 09:46:27;;;;;;;70.85;20.67;;;8.50;93.60;;;;;;5043998;28;20456;-83
2021/12/16 09:48:56;;;;;;;151.50;22.77;;;8.50;93.60;;;;;;5041243;28;20053;-83
2021/12/16 09:51:25;;;;;;;55.15;19.77;;;8.50;93.50;;;;;;5047584;28;20065;-83
2021/12/16 09:54:01;;;;;;;79.00;21.20;;;8.50;93.50;;;;;;5060660;28;20855;-82
2021/12/16 09:56:28;;;;;;;95.10;21.30;;;8.60;93.60;;;;;;5045876;28;20459;-83
2021/12/16 09:58:55;;;;;;;64.90;22.00;;;8.60;93.60;;;;;;5040234;28;20065;-83
2021/12/16 10:01:23;;;;;;;70.57;20.98;;;8.60;93.60;;;;;;5052790;28;20167;-83
2021/12/16 10:03:53;;;;;;;73.70;21.88;;;8.60;93.60;;;;;;5034622;28;20487;-83
2021/12/16 10:06:19;;;;;;;78.50;22.60;;;8.60;93.60;;;;;;5036997;28;20057;-83
2021/12/16 10:08:46;;;;;;;137.63;25.08;;;8.70;93.60;;;;;;5045118;28;20140;-83
2021/12/16 10:11:12;;;;;;;79.00;23.45;;;8.70;93.60;;;;;;5040276;28;20570;-83
2021/12/16 10:13:58;;;;;;;106.90;22.40;;;8.70;94.00;;;;;;5017461;28;20149;-83
2021/12/16 10:19:21;;;;;;;79.38;22.77;;;8.70;93.60;;;;;;5011447;28;20483;-83
2021/12/16 10:21:47;;;;;;;83.88;22.00;;;8.70;93.50;;;;;;5029644;28;20836;-83
2021/12/16 10:24:23;;;;;;;90.75;21.40;;;8.70;93.60;;;;;;5035631;28;20057;-83
2021/12/16 10:27:12;;;;;;;78.10;22.00;;;8.70;93.60;;;;;;5062349;28;20085;-83
2021/12/16 10:29:39;;;;;;;92.05;22.55;;;8.80;93.70;;;;;;5042624;28;20386;-83
2021/12/16 10:32:25;;;;;;;104.00;23.60;;;8.80;93.60;;;;;;5049481;28;20433;-83
2021/12/16 10:34:59;;;;;;;76.75;22.95;;;8.80;93.60;;;;;;5048861;28;20066;-83
2021/12/16 10:37:32;;;;;;;69.72;22.73;;;8.80;93.70;;;;;;5051393;28;20053;-83
2021/12/16 10:40:33;;;;;;;88.53;21.95;;;8.80;93.70;;;;;;5045559;28;20072;-84
2021/12/16 10:43:02;;;;;;;71.78;22.63;;;8.90;93.70;;;;;;5017483;28;20060;-83
2021/12/16 10:45:37;;;;;;;97.18;23.58;;;8.90;93.70;;;;;;5049562;28;20057;-83
2021/12/16 10:48:16;;;;;;;67.30;22.60;;;9.00;93.70;;;;;;5045889;28;20072;-83
2021/12/16 10:50:53;;;;;;;72.55;22.55;;;9.00;93.80;;;;;;5066535;28;20053;-84
2021/12/16 10:53:51;;;;;;;90.53;23.25;;;9.10;93.80;;;;;;5068739;28;20407;-83
2021/12/16 10:56:19;;;;;;;89.15;22.00;;;9.10;93.80;;;;;;5046500;28;20048;-84
2021/12/16 10:58:57;;;;;;;72.85;23.65;;;9.20;93.70;;;;;;5049020;28;20066;-83
2021/12/16 11:01:38;;;;;;;73.55;23.55;;;9.20;93.70;;;;;;5039918;28;20174;-84
2021/12/16 11:04:08;;;;;;;87.55;22.33;;;9.20;93.80;;;;;;5042348;28;20051;-83
2021/12/16 11:07:03;;;;;;;76.57;22.83;;;9.20;93.70;;;;;;5028438;28;20136;-83
2021/12/16 11:09:36;;;;;;;80.72;24.30;;;9.20;93.70;;;;;;5031286;28;20489;-84
2021/12/16 11:12:20;;;;;;;77.68;24.80;;;9.20;93.70;;;;;;5050076;28;20107;-84
2021/12/16 11:14:54;;;;;;;82.65;24.15;;;9.20;93.70;;;;;;5025609;28;20057;-83
2021/12/16 11:17:23;;;;;;;82.32;24.25;;;9.20;93.70;;;;;;5033123;28;20049;-83
2021/12/16 11:20:34;;;;;;;81.82;25.27;;;9.20;93.70;;;;;;5024416;28;20410;-83
2021/12/16 11:23:17;;;;;;;81.78;24.40;;;9.30;93.80;;;;;;5000909;28;20123;-84
2021/12/16 11:25:57;;;;;;;82.53;23.77;;;9.30;93.80;;;;;;5031914;28;20448;-83
2021/12/16 11:28:32;;;;;;;76.22;24.65;;;9.40;93.80;;;;;;5029736;28;20143;-83
2021/12/16 11:31:09;;;;;;;79.85;23.58;;;9.40;93.80;;;;;;5030344;28;20053;-83
2021/12/16 11:33:40;;;;;;;71.53;25.25;;;9.50;93.80;;;;;;5027101;28;20088;-83
2021/12/16 11:36:28;;;;;;;74.68;24.42;;;9.50;93.80;;;;;;5021050;28;20058;-82
2021/12/16 11:39:02;;;;;;;69.85;23.42;;;9.50;93.80;;;;;;5036907;28;20073;-82
2021/12/16 11:41:43;;;;;;;82.57;24.48;;;9.60;93.80;;;;;;5037109;28;20053;-83
2021/12/16 11:44:33;;;;;;;79.05;25.73;;;9.60;93.80;;;;;;5031617;28;20044;-84
2021/12/16 11:47:03;;;;;;;75.70;24.15;;;9.60;93.80;;;;;;5033015;28;20470;-83
2021/12/16 11:49:32;;;;;;;65.13;22.48;;;9.70;93.80;;;;;;5030410;28;20062;-83
2021/12/16 11:52:12;;;;;;;73.43;22.70;;;9.70;93.70;;;;;;5030097;28;20052;-83
2021/12/16 11:54:47;;;;;;;68.43;23.85;;;9.70;93.80;;;;;;5043343;28;20417;-83
2021/12/16 11:57:18;;;;;;;72.80;22.95;;;9.80;93.70;;;;;;5032833;28;20053;-83
2021/12/16 11:59:49;;;;;;;78.55;21.88;;;9.80;93.70;;;;;;5034759;28;20060;-83
2021/12/16 12:02:21;;;;;;;73.88;23.63;;;9.80;93.70;;;;;;5051791;28;20444;-83
2021/12/16 12:04:47;;;;;;;79.25;23.65;;;9.80;93.60;;;;;;5058831;28;20042;-83
2021/12/16 12:07:15;;;;;;;80.65;22.83;;;9.80;93.70;;;;;;5038014;28;20046;-82
2021/12/16 12:09:50;;;;;;;82.70;24.55;;;9.80;93.70;;;;;;5055594;28;20410;-83
2021/12/16 12:12:16;;;;;;;86.25;22.67;;;9.80;93.70;;;;;;5056146;28;20058;-83
2021/12/16 12:14:43;;;;;;;101.50;24.10;;;9.80;93.70;;;;;;5054290;28;20124;-84
2021/12/16 12:17:16;;;;;;;91.30;22.92;;;9.80;93.60;;;;;;5053335;28;20055;-83
2021/12/16 12:19:43;;;;;;;;;;;9.80;93.60;;;;;;5069227;28;20071;-83
2021/12/16 12:22:09;;;;;;;90.25;23.45;;;9.80;93.60;;;;;;5060477;28;19977;-83
2021/12/16 12:24:38;;;;;;;77.47;23.40;;;9.80;93.60;;;;;;5056157;28;20080;-83
2021/12/16 12:27:11;;;;;;;97.43;24.30;;;9.80;93.60;;;;;;5057762;28;20046;-84
2021/12/16 12:29:53;;;;;;;103.55;25.42;;;9.80;93.60;;;;;;5056892;28;20051;-83
2021/12/16 12:32:21;;;;;;;121.93;25.17;;;9.80;93.70;;;;;;5066884;28;20056;-84
2021/12/16 12:34:52;;;;;;;108.43;25.90;;;9.80;93.70;;;;;;5059181;28;20053;-84
2021/12/16 12:37:20;;;;;;;156.65;26.02;;;9.80;93.70;;;;;;5064290;28;20502;-83
2021/12/16 12:39:50;;;;;;;116.43;23.77;;;9.80;93.70;;;;;;5058911;28;20064;-84
2021/12/16 12:42:17;;;;;;;162.52;25.15;;;9.80;93.70;;;;;;5056696;28;20718;-85
2021/12/16 12:44:43;;;;;;;117.28;23.63;;;9.80;93.70;;;;;;5044464;28;20408;-85
2021/12/16 12:47:18;;;;;;;135.65;24.00;;;9.90;93.70;;;;;;5057208;28;20134;-84
2021/12/16 12:49:44;;;;;;;92.57;22.92;;;9.90;93.70;;;;;;5055998;28;20502;-84
2021/12/16 12:52:16;;;;;;;102.03;23.27;;;9.90;93.70;;;;;;5055470;28;20057;-84
2021/12/16 12:54:56;;;;;;;;;;;9.90;93.70;;;;;;5056003;28;20734;-85
2021/12/16 12:57:26;;;;;;;102.07;23.42;;;9.90;93.70;;;;;;5056667;28;20395;-84
2021/12/16 12:59:53;;;;;;;92.30;23.90;;;9.90;93.70;;;;;;5056425;28;20094;-85
2021/12/16 13:02:21;;;;;;;91.75;24.98;;;9.90;93.70;;;;;;5020326;28;20427;-84
2021/12/16 13:05:08;;;;;;;106.47;24.50;;;10.00;93.70;;;;;;5048129;28;20136;-84
2021/12/16 13:07:43;;;;;;;122.00;25.10;;;9.90;93.70;;;;;;5052737;28;20051;-85
2021/12/16 13:10:15;;;;;;;106.90;24.77;;;9.90;93.70;;;;;;5051766;28;20135;-85
2021/12/16 13:15:28;;;;;;;119.07;23.77;;;9.90;93.80;;;;;;5063566;28;20056;-84
2021/12/16 13:23:36;;;;;;;135.98;25.10;;;9.90;93.80;;;;;;5067003;28;20103;-84
2021/12/16 13:26:35;;;;;;;143.00;25.73;;;9.90;93.70;;;;;;5053835;28;20039;-85
2021/12/16 13:29:13;;;;;;;162.15;26.10;;;9.90;93.80;;;;;;5066501;28;20076;-85
2021/12/16 13:31:58;;;;;;;170.00;27.55;;;9.90;93.80;;;;;;5053153;28;20096;-85
2021/12/16 13:35:12;;;;;;;145.75;26.70;;;9.90;93.80;;;;;;5061926;28;20139;-84
2021/12/16 13:37:39;;;;;;;115.20;25.15;;;9.90;93.80;;;;;;5048090;28;20074;-81
2021/12/16 13:40:20;;;;;;;125.15;26.85;;;9.90;93.80;;;;;;5046993;28;20067;-85
2021/12/16 13:42:58;;;;;;;152.23;27.13;;;9.90;93.80;;;;;;5055412;28;20134;-85
2021/12/16 13:45:33;;;;;;;150.98;27.38;;;9.90;93.80;;;;;;5048662;28;20073;-85
2021/12/16 14:02:06;;;;;;;122.30;27.88;;;9.90;93.80;;;;;;5071959;28;20487;-85
2021/12/16 14:10:19;;;;;;;136.25;26.88;;;9.90;94.20;;;;;;5065557;28;20054;-85
2021/12/16 14:42:10;;;;;;;163.07;25.92;;;9.90;93.90;;;;;;5044162;28;20048;-83
2021/12/16 14:50:24;;;;;;;151.23;25.50;;;9.90;93.90;;;;;;5066354;28;20146;-84
2021/12/16 14:52:50;;;;;;;162.02;27.10;;;9.90;93.90;;;;;;5051340;28;20134;-83
2021/12/16 14:55:18;;;;;;;144.73;26.58;;;9.90;93.90;;;;;;5052500;28;20072;-84
2021/12/16 14:57:51;;;;;;;181.35;28.42;;;9.80;94.00;;;;;;5033967;28;20096;-84
2021/12/16 15:00:37;;;;;;;171.82;27.58;;;9.80;94.00;;;;;;5048270;28;20059;-79
2021/12/16 15:03:06;;;;;;;217.38;30.17;;;9.80;93.90;;;;;;5049251;28;20048;-82
2021/12/16 15:05:38;;;;;;;244.60;28.95;;;9.80;93.90;;;;;;5069097;28;20066;-88
2021/12/16 15:08:07;;;;;;;198.10;28.48;;;9.80;94.00;;;;;;5052258;28;20041;-86
2021/12/16 15:10:33;;;;;;;223.85;29.02;;;9.80;94.00;;;;;;5056728;28;20060;-89
2021/12/16 15:13:08;;;;;;;180.43;28.92;;;9.80;94.00;;;;;;5058374;28;20055;-83
2021/12/16 15:15:52;;;;;;;200.18;28.52;;;9.70;94.40;;;;;;5045036;28;20052;-90
2021/12/16 15:37:44;;;;;;;213.90;25.48;;;9.70;94.10;;;;;;5074762;28;20064;-86
2021/12/16 15:40:55;;;;;;;170.02;23.52;;;9.70;94.10;;;;;;5038532;28;20068;-85
2021/12/16 15:43:06;;;;;;;159.77;23.05;;;9.70;94.10;;;;;;5065487;28;20069;-86
2021/12/16 15:45:32;;;;;;;180.60;23.02;;;9.60;94.10;;;;;;5049329;28;20062;-85
2021/12/16 15:48:05;;;;;;;151.57;23.38;;;9.60;94.10;;;;;;5049534;28;20822;-84
2021/12/16 15:50:45;;;;;;;159.65;23.83;;;9.60;94.10;;;;;;5057656;28;20464;-84
2021/12/16 15:53:21;;;;;;;220.27;23.23;;;9.60;94.20;;;;;;5053941;28;20059;-84
2021/12/16 15:56:06;;;;;;;200.85;24.17;;;9.60;94.20;;;;;;5043716;28;20082;-84
2021/12/16 15:58:43;;;;;;;146.48;23.92;;;9.60;94.20;;;;;;5056258;28;20112;-84
2021/12/16 16:01:16;;;;;;;123.43;21.58;;;9.60;94.20;;;;;;5056804;28;20214;-84
2021/12/16 16:03:43;;;;;;;234.63;25.08;;;9.60;94.20;;;;;;5060005;28;20049;-84
2021/12/16 16:06:11;;;;;;;152.05;22.23;;;9.60;94.20;;;;;;5056368;28;20135;-84
2021/12/16 16:08:41;;;;;;;167.20;24.42;;;9.60;94.20;;;;;;5056783;28;20051;-85
2021/12/16 16:11:15;;;;;;;156.68;23.58;;;9.60;94.20;;;;;;5061727;28;20074;-85
2021/12/16 16:13:51;;;;;;;163.77;23.75;;;9.60;94.20;;;;;;5056355;28;20060;-84
2021/12/16 16:16:22;;;;;;;257.02;29.35;;;9.60;94.20;;;;;;5058380;28;20052;-84
2021/12/16 16:18:56;;;;;;;156.07;25.75;;;9.60;94.20;;;;;;5056557;28;20061;-84
2021/12/16 16:21:34;;;;;;;135.15;24.95;;;9.60;94.20;;;;;;5058458;28;20573;-84
2021/12/16 16:24:20;;;;;;;169.73;27.13;;;9.60;94.20;;;;;;5059563;28;20048;-84
2021/12/16 16:26:52;;;;;;;133.77;26.17;;;9.60;94.20;;;;;;5037871;28;20063;-84
2021/12/16 16:29:21;;;;;;;220.43;27.85;;;9.60;94.20;;;;;;5058606;28;20052;-84
2021/12/16 16:31:47;;;;;;;146.63;25.48;;;9.60;94.20;;;;;;5057746;28;20044;-84
2021/12/16 16:34:20;;;;;;;165.32;25.40;;;9.60;94.20;;;;;;5032112;28;20119;-84
2021/12/16 16:36:51;;;;;;;161.45;25.52;;;9.60;94.20;;;;;;5052908;28;20051;-84
2021/12/16 16:39:20;;;;;;;133.68;24.05;;;9.60;94.20;;;;;;5057366;28;20059;-84
2021/12/16 16:41:49;;;;;;;231.00;30.38;;;9.60;94.20;;;;;;5060321;28;20130;-85